»·PEaware :: N744SP KPVF-KSBP

N744SP :: KPVF-KSBP

FLIGHT INFORMATION

Flight Status: Arrived
Operator: Privately registered:
United States
More flights under this callsign
Pilot: Kelly H. (18845)
Aircraft: CESSNA 182 SKYLANE
(C182)
More flights by this aircraft type
Origin: KPVF Placerville
United States
Destination: KSBP San Luis Co Regl
United States
More flights between these airports :: More routes between these airports
Route:
File this flight plan on PilotEdge
Remarks:
Altitude:
(Current/Filed)
9,500ft
Speed:
(Current/Filed)
140kts
Departed: 20-Dec-19 12:33 PM
Arrived: 20-Dec-19 02:19 PM
Distance/Time
Traveled:
209nm/1:46
Distance/Time
To Go:
Arrived

Flight Plot

Page will automatically refresh every two minutes.

Flight plan parsing failed; only flown route is shown


Map Options




Map Legend


Flown Route
Filed Route
Departure Airport
Arrival Airport
Navaid (VOR, NDB)
Fix

Horizontal Profiles

Position Reports

Time Latitude Longitude Heading Altitude Ground
Speed
20-Dec-19 12:26 38.722945 -120.762603 91 2586ft 0kts
20-Dec-19 12:27 38.722929 -120.760717 88 2586ft 8kts
20-Dec-19 12:28 38.723311 -120.757464 59 2586ft 4kts
20-Dec-19 12:29 38.725312 -120.752348 59 2586ft 20kts
20-Dec-19 12:30 38.725741 -120.751125 227 2586ft 0kts
20-Dec-19 12:31 38.725115 -120.751073 237 2586ft 12kts
20-Dec-19 12:32 38.713377 -120.771132 191 3143ft 84kts
20-Dec-19 12:33 38.685361 -120.776848 191 3543ft 123kts
20-Dec-19 12:34 38.649050 -120.788812 192 3807ft 129kts
20-Dec-19 12:35 38.615581 -120.797114 188 4568ft 124kts
20-Dec-19 12:36 38.581613 -120.807141 192 5274ft 125kts
20-Dec-19 12:37 38.548278 -120.819132 194 5960ft 121kts
20-Dec-19 12:38 38.516987 -120.831202 194 6642ft 113kts
20-Dec-19 12:39 38.487859 -120.842807 194 7343ft 106kts
20-Dec-19 12:40 38.460389 -120.853857 193 8042ft 100kts
20-Dec-19 12:41 38.425277 -120.867370 194 7680ft 149kts
20-Dec-19 12:42 38.385082 -120.882884 194 7460ft 146kts
20-Dec-19 12:43 38.347266 -120.897692 194 7470ft 140kts
20-Dec-19 12:44 38.310048 -120.912238 194 7471ft 140kts
20-Dec-19 12:45 38.272839 -120.926760 194 7470ft 139kts
20-Dec-19 12:46 38.235611 -120.941264 194 7470ft 139kts
20-Dec-19 12:47 38.198371 -120.955766 194 7469ft 140kts
20-Dec-19 12:48 38.161212 -120.970272 193 7470ft 139kts
20-Dec-19 12:49 38.124065 -120.984673 194 7469ft 139kts
20-Dec-19 12:50 38.086662 -120.996492 178 7481ft 136kts
20-Dec-19 12:51 38.048555 -120.994548 174 7473ft 137kts
20-Dec-19 12:52 38.010534 -120.991408 174 7469ft 137kts
20-Dec-19 12:53 37.972780 -120.988359 173 7469ft 134kts
20-Dec-19 12:54 37.935627 -120.985146 173 7468ft 133kts
20-Dec-19 12:55 37.898564 -120.981866 173 7469ft 133kts
20-Dec-19 12:56 37.861574 -120.978583 173 7470ft 133kts
20-Dec-19 12:57 37.824499 -120.975297 173 7470ft 133kts
20-Dec-19 12:58 37.787545 -120.972023 173 7470ft 133kts
20-Dec-19 12:59 37.750520 -120.968735 173 7470ft 133kts
20-Dec-19 13:00 37.713523 -120.965467 173 7470ft 133kts
20-Dec-19 13:01 37.676449 -120.962196 173 7470ft 133kts
20-Dec-19 13:02 37.639374 -120.958965 172 7470ft 133kts
20-Dec-19 13:03 37.602546 -120.954151 170 7470ft 133kts
20-Dec-19 13:04 37.565866 -120.947986 169 7470ft 133kts
20-Dec-19 13:05 37.529373 -120.941209 169 7471ft 132kts
20-Dec-19 13:06 37.492775 -120.934087 168 7473ft 132kts
20-Dec-19 13:07 37.456367 -120.926934 168 7475ft 132kts
20-Dec-19 13:09 37.420167 -120.919738 168 7478ft 131kts
20-Dec-19 13:10 37.383858 -120.912448 168 7480ft 131kts
20-Dec-19 13:11 37.347662 -120.905152 168 7482ft 131kts
20-Dec-19 13:12 37.311504 -120.897898 168 7483ft 131kts
20-Dec-19 13:13 37.275595 -120.890686 168 7485ft 130kts
20-Dec-19 13:14 37.239610 -120.883449 168 7486ft 130kts
20-Dec-19 13:15 37.203646 -120.876214 168 7487ft 130kts
20-Dec-19 13:16 37.167875 -120.869093 168 7487ft 130kts
20-Dec-19 13:17 37.132031 -120.861917 168 7487ft 130kts
20-Dec-19 13:18 37.096334 -120.854703 168 7479ft 130kts
20-Dec-19 13:19 37.060539 -120.847520 168 7478ft 130kts
20-Dec-19 13:20 37.024873 -120.840370 168 7478ft 130kts
20-Dec-19 13:21 36.989166 -120.833270 168 7479ft 129kts
20-Dec-19 13:22 36.953687 -120.826183 168 7476ft 129kts
20-Dec-19 13:23 36.918164 -120.819061 168 7476ft 129kts
20-Dec-19 13:24 36.882701 -120.812035 167 7475ft 131kts
20-Dec-19 13:25 36.846154 -120.804725 168 7468ft 131kts
20-Dec-19 13:26 36.810607 -120.797654 167 7466ft 128kts
20-Dec-19 13:27 36.775495 -120.790641 168 7466ft 127kts
20-Dec-19 13:28 36.738848 -120.783279 168 7062ft 141kts
20-Dec-19 13:29 36.698992 -120.778646 173 6467ft 144kts
20-Dec-19 13:29 36.666124 -120.776242 173 5951ft 139kts
20-Dec-19 13:31 36.621376 -120.772775 170 5466ft 130kts
20-Dec-19 13:31 36.592548 -120.768792 170 5473ft 121kts
20-Dec-19 13:32 36.559649 -120.764078 170 5492ft 120kts
20-Dec-19 13:34 36.519848 -120.758006 169 5489ft 126kts
20-Dec-19 13:34 36.490436 -120.753448 169 5488ft 126kts
20-Dec-19 13:35 36.456198 -120.748190 169 5479ft 122kts
20-Dec-19 13:36 36.422216 -120.742892 169 5483ft 123kts
20-Dec-19 13:37 36.387932 -120.737542 169 5483ft 124kts
20-Dec-19 13:38 36.353563 -120.732198 169 5481ft 124kts
20-Dec-19 13:39 36.319499 -120.726858 169 5480ft 122kts
20-Dec-19 13:40 36.285964 -120.721658 169 5482ft 121kts
20-Dec-19 13:41 36.252462 -120.716456 169 5483ft 121kts
20-Dec-19 13:42 36.218974 -120.711270 169 5485ft 121kts
20-Dec-19 13:43 36.185632 -120.706121 169 5483ft 120kts
20-Dec-19 13:44 36.152376 -120.700566 169 5484ft 120kts
20-Dec-19 13:45 36.119130 -120.695274 169 5480ft 120kts
20-Dec-19 13:46 36.085944 -120.690151 169 5480ft 119kts
20-Dec-19 13:47 36.052923 -120.685022 169 5480ft 119kts
20-Dec-19 13:48 36.019920 -120.679908 170 5480ft 120kts
20-Dec-19 13:49 35.986822 -120.674892 170 5483ft 118kts
20-Dec-19 13:50 35.954211 -120.669968 169 5480ft 117kts
20-Dec-19 13:51 35.921826 -120.665049 169 5480ft 117kts
20-Dec-19 13:52 35.889544 -120.660114 169 5480ft 117kts
20-Dec-19 13:53 35.857170 -120.655185 169 5480ft 117kts
20-Dec-19 13:54 35.824827 -120.650260 169 5481ft 117kts
20-Dec-19 13:55 35.792455 -120.645332 170 5481ft 117kts
20-Dec-19 13:56 35.758813 -120.653162 190 5174ft 127kts
20-Dec-19 13:57 35.724445 -120.663470 194 4768ft 129kts
20-Dec-19 13:58 35.689355 -120.676599 185 4207ft 133kts
20-Dec-19 13:59 35.652520 -120.680963 177 3614ft 133kts
20-Dec-19 14:00 35.615577 -120.679244 176 3095ft 133kts
20-Dec-19 14:01 35.581255 -120.669329 120 2710ft 136kts
20-Dec-19 14:02 35.566004 -120.635896 179 2676ft 127kts
20-Dec-19 14:03 35.533903 -120.638345 200 3260ft 119kts
20-Dec-19 14:04 35.501872 -120.637753 168 3693ft 121kts
20-Dec-19 14:05 35.468641 -120.637944 180 4130ft 113kts
20-Dec-19 14:06 35.434714 -120.638850 179 4207ft 134kts
20-Dec-19 14:07 35.395832 -120.640556 179 3999ft 139kts
20-Dec-19 14:08 35.357183 -120.643938 189 3916ft 138kts
20-Dec-19 14:09 35.318611 -120.642937 169 3286ft 114kts
20-Dec-19 14:10 35.287664 -120.640614 180 2365ft 111kts
20-Dec-19 14:11 35.254195 -120.645851 199 1997ft 111kts
20-Dec-19 14:12 35.228464 -120.663737 294 1169ft 116kts
20-Dec-19 14:13 35.223607 -120.644587 134 1245ft 112kts
20-Dec-19 14:14 35.198582 -120.624218 156 1181ft 101kts
20-Dec-19 14:15 35.193181 -120.605840 23 1338ft 93kts
20-Dec-19 14:16 35.218680 -120.608758 311 1138ft 112kts
20-Dec-19 14:17 35.233296 -120.633931 308 238ft 57kts
20-Dec-19 14:18 35.237546 -120.640162 2 215ft 4kts
20-Dec-19 14:19 35.237768 -120.638262 16 215ft 1kts
20-Dec-19 14:20 35.237948 -120.638270 2 215ft 0kts
20-Dec-19 14:21 35.237948 -120.638270 2 215ft 0kts
20-Dec-19 14:22 35.237948 -120.638270 2 215ft 0kts
20-Dec-19 14:23 35.237948 -120.638270 2 215ft 0kts
20-Dec-19 14:24 35.237948 -120.638270 2 215ft 0kts
20-Dec-19 14:25 35.237948 -120.638270 2 215ft 0kts
20-Dec-19 14:26 35.237948 -120.638270 2 215ft 0kts
20-Dec-19 14:27 35.237948 -120.638270 2 215ft 0kts
20-Dec-19 14:28 35.237948 -120.638270 2 215ft 0kts
20-Dec-19 14:29 35.237948 -120.638270 2 215ft 0kts
20-Dec-19 14:30 35.237948 -120.638270 2 215ft 0kts
20-Dec-19 14:31 35.237948 -120.638270 2 215ft 0kts
20-Dec-19 14:32 35.237948 -120.638270 2 215ft 0kts

Navigation Log

Ident Type
Flight plan parsing failed, navigation log unavailable